Time;durP1;ratioP1;P1;durP2;ratioP2;P2;SDS_P1;SDS_P2;PMS_P1;PMS_P2;Temp;Humidity;BMP_temperature;BMP_pressure;BME280_temperature;BME280_humidity;BME280_pressure;Samples;Min_cycle;Max_cycle;Signal;HPM_P1;HPM_P2
2024/01/25 00:02:10;;;;;;;413.67;164.43;;;;;;;;;;5036414;28;20187;-58
2024/01/25 00:04:36;;;;;;;423.97;163.50;;;;;;;;;;5035701;28;20261;-59
2024/01/25 00:07:02;;;;;;;486.97;194.03;;;;;;;;;;5036305;28;20636;-59
2024/01/25 00:09:28;;;;;;;455.93;177.30;;;;;;;;;;5025355;28;20558;-59
2024/01/25 00:11:53;;;;;;;399.63;153.70;;;;;;;;;;5029919;28;20223;-58
2024/01/25 00:14:19;;;;;;;441.37;173.40;;;;;;;;;;5035569;28;20183;-58
2024/01/25 00:16:45;;;;;;;418.80;163.60;;;;;;;;;;5037512;28;20212;-59
2024/01/25 00:19:11;;;;;;;489.57;191.87;;;;;;;;;;5035028;28;20207;-57
2024/01/25 00:21:43;;;;;;;379.30;150.27;;;;;;;;;;5042911;28;20376;-59
2024/01/25 00:24:09;;;;;;;409.53;159.60;;;;;;;;;;5038057;28;20246;-58
2024/01/25 00:26:35;;;;;;;383.80;151.90;;;;;;;;;;5043946;28;20215;-58
2024/01/25 00:29:00;;;;;;;430.00;170.00;;;;;;;;;;5034972;28;20223;-57
2024/01/25 00:31:27;;;;;;;430.50;167.63;;;;;;;;;;5039345;28;20221;-58
2024/01/25 00:33:53;;;;;;;456.57;174.70;;;;;;;;;;5039680;28;20227;-57
2024/01/25 00:36:19;;;;;;;413.67;159.17;;;;;;;;;;5039091;28;20722;-59
2024/01/25 00:38:45;;;;;;;380.13;149.33;;;;;;;;;;5038160;28;20782;-58
2024/01/25 00:41:15;;;;;;;465.17;186.40;;;;;;;;;;5029428;28;20462;-58
2024/01/25 00:43:41;;;;;;;398.40;159.87;;;;;;;;;;5038368;28;20199;-59
2024/01/25 00:46:07;;;;;;;478.70;188.07;;;;;;;;;;5033869;28;20712;-60
2024/01/25 00:48:33;;;;;;;380.20;151.10;;;;;;;;;;5039975;28;20216;-59
2024/01/25 00:50:59;;;;;;;378.53;150.47;;;;;;;;;;5037097;28;20216;-58
2024/01/25 00:53:26;;;;;;;423.87;168.90;;;;;;;;;;5039964;28;20575;-59
2024/01/25 00:55:52;;;;;;;385.40;156.27;;;;;;;;;;5040518;28;20246;-59
2024/01/25 00:58:18;;;;;;;413.80;166.77;;;;;;;;;;5034778;28;20207;-58
2024/01/25 01:00:44;;;;;;;389.63;157.83;;;;;;;;;;5034393;28;20294;-58
2024/01/25 01:03:11;;;;;;;415.03;166.57;;;;;;;;;;5040789;28;20440;-56
2024/01/25 01:05:37;;;;;;;390.50;155.03;;;;;;;;;;5035637;28;20227;-56
2024/01/25 01:08:03;;;;;;;443.03;175.57;;;;;;;;;;5038327;28;20230;-55
2024/01/25 01:10:29;;;;;;;421.60;168.47;;;;;;;;;;5039376;28;20179;-56
2024/01/25 01:12:55;;;;;;;451.90;176.27;;;;;;;;;;5037011;28;20702;-57
2024/01/25 01:15:21;;;;;;;482.37;186.87;;;;;;;;;;5032184;28;20511;-56
2024/01/25 01:17:47;;;;;;;386.53;155.27;;;;;;;;;;5039991;28;20677;-57
2024/01/25 01:20:13;;;;;;;424.80;169.40;;;;;;;;;;5038220;28;20195;-56
2024/01/25 01:22:39;;;;;;;350.60;143.97;;;;;;;;;;5034042;28;20279;-57
2024/01/25 01:25:05;;;;;;;426.73;169.00;;;;;;;;;;5037471;28;20329;-57
2024/01/25 01:27:31;;;;;;;434.53;168.43;;;;;;;;;;5036121;28;20219;-57
2024/01/25 01:29:57;;;;;;;415.03;161.60;;;;;;;;;;5035689;28;20235;-55
2024/01/25 01:32:23;;;;;;;397.30;160.23;;;;;;;;;;5037246;28;20272;-57
2024/01/25 01:34:49;;;;;;;388.47;154.43;;;;;;;;;;5042427;28;20195;-57
2024/01/25 01:37:15;;;;;;;438.60;170.10;;;;;;;;;;5038333;28;20257;-56
2024/01/25 01:39:40;;;;;;;435.70;172.13;;;;;;;;;;5035752;28;20218;-56
2024/01/25 01:42:06;;;;;;;429.60;168.07;;;;;;;;;;5034336;28;20226;-56
2024/01/25 01:44:32;;;;;;;399.37;160.90;;;;;;;;;;5036988;28;20540;-55
2024/01/25 01:46:59;;;;;;;401.23;158.77;;;;;;;;;;5035669;28;20299;-56
2024/01/25 01:49:25;;;;;;;418.23;163.97;;;8.70;83.50;;;;;;5034541;28;20501;-57
2024/01/25 01:51:52;;;;;;;415.90;163.07;;;;;;;;;;5034494;28;20315;-56
2024/01/25 01:54:18;;;;;;;413.80;163.90;;;;;;;;;;5038747;28;20211;-57
2024/01/25 01:56:45;;;;;;;386.53;157.00;;;;;;;;;;5038307;28;20303;-57
2024/01/25 01:59:11;;;;;;;432.73;172.37;;;;;;;;;;5035555;28;20267;-58
2024/01/25 02:01:37;;;;;;;389.80;153.13;;;;;;;;;;5034372;28;20191;-56
2024/01/25 02:04:04;;;;;;;408.40;157.30;;;;;;;;;;5037452;28;20671;-57
2024/01/25 02:06:30;;;;;;;395.50;156.47;;;;;;;;;;5034396;28;20637;-57
2024/01/25 02:08:58;;;;;;;431.03;168.37;;;;;;;;;;5031692;28;20318;-57
2024/01/25 02:11:25;;;;;;;464.47;180.07;;;;;;;;;;5034143;28;20258;-56
2024/01/25 02:13:50;;;;;;;413.90;163.73;;;;;;;;;;5030005;28;20245;-57
2024/01/25 02:16:17;;;;;;;419.03;164.17;;;;;;;;;;5033503;28;20224;-56
2024/01/25 02:18:44;;;;;;;436.83;172.90;;;;;;;;;;5033844;28;20689;-57
2024/01/25 02:21:09;;;;;;;475.00;183.80;;;;;;;;;;5033636;28;20289;-57
2024/01/25 02:23:35;;;;;;;404.90;156.57;;;;;;;;;;5032743;28;20223;-56
2024/01/25 02:26:01;;;;;;;467.43;187.27;;;;;;;;;;5035716;28;20227;-56
2024/01/25 02:28:27;;;;;;;410.87;159.63;;;;;;;;;;5034840;28;20180;-56
2024/01/25 02:30:53;;;;;;;394.67;152.77;;;;;;;;;;5036248;28;20219;-57
2024/01/25 02:33:19;;;;;;;483.87;188.50;;;;;;;;;;5032255;28;20219;-56
2024/01/25 02:35:45;;;;;;;390.90;153.70;;;;;;;;;;5036362;28;20626;-57
2024/01/25 02:38:11;;;;;;;461.30;177.87;;;;;;;;;;5034220;28;20186;-57
2024/01/25 02:40:37;;;;;;;435.77;170.60;;;;;;;;;;5033508;28;20565;-57
2024/01/25 02:43:03;;;;;;;429.50;165.57;;;;;;;;;;5037274;28;20226;-56
2024/01/25 02:45:29;;;;;;;389.53;151.90;;;;;;;;;;5034459;28;21616;-56
2024/01/25 02:47:55;;;;;;;460.50;180.63;;;;;;;;;;5027744;28;20269;-56
2024/01/25 02:50:21;;;;;;;421.53;162.57;;;;;;;;;;5035390;28;20707;-58
2024/01/25 02:52:47;;;;;;;438.90;170.03;;;;;;;;;;5033899;28;20194;-56
2024/01/25 02:55:13;;;;;;;430.90;168.90;;;;;;;;;;5036254;28;20693;-57
2024/01/25 02:57:39;;;;;;;436.20;171.73;;;;;;;;;;5033006;28;20223;-60
2024/01/25 03:00:05;;;;;;;409.17;160.77;;;;;;;;;;5035023;28;20574;-56
2024/01/25 03:02:31;;;;;;;379.50;151.67;;;;;;;;;;5035483;28;20492;-56
2024/01/25 03:04:57;;;;;;;391.10;149.70;;;;;;;;;;5034956;28;20296;-58
2024/01/25 03:07:23;;;;;;;569.30;228.67;;;;;;;;;;5027371;28;20212;-55
2024/01/25 03:09:49;;;;;;;447.23;172.80;;;;;;;;;;5027842;28;20543;-56
2024/01/25 03:12:15;;;;;;;423.53;166.37;;;;;;;;;;5036569;28;20321;-58
2024/01/25 03:14:41;;;;;;;396.80;151.43;;;;;;;;;;5034134;28;20211;-56
2024/01/25 03:17:07;;;;;;;405.87;153.63;;;;;;;;;;5032638;28;20704;-57
2024/01/25 03:19:33;;;;;;;456.73;175.90;;;;;;;;;;5027314;28;20180;-58
2024/01/25 03:22:01;;;;;;;407.23;157.53;;;;;;;;;;5035317;28;20219;-57
2024/01/25 03:24:27;;;;;;;409.57;163.10;;;;;;;;;;5031946;28;20276;-57
2024/01/25 03:26:53;;;;;;;393.50;158.50;;;;;;;;;;5034478;28;20207;-58
2024/01/25 03:29:19;;;;;;;415.33;165.93;;;;;;;;;;5026536;28;20274;-57
2024/01/25 03:31:45;;;;;;;393.50;156.20;;;;;;;;;;5034996;28;20275;-57
2024/01/25 03:34:11;;;;;;;413.70;161.77;;;;;;;;;;5032574;28;20219;-56
2024/01/25 03:36:39;;;;;;;459.73;179.30;;;;;;;;;;5030418;28;20313;-55
2024/01/25 03:39:05;;;;;;;428.70;167.47;;;;;;;;;;5031933;28;20223;-59
2024/01/25 03:41:31;;;;;;;401.03;157.93;;;;;;;;;;5034070;28;20231;-58
2024/01/25 03:43:57;;;;;;;399.47;152.60;;;;;;;;;;5033996;28;20294;-60
2024/01/25 03:46:23;;;;;;;397.63;157.77;;;;;;;;;;5033284;28;20219;-61
2024/01/25 03:48:49;;;;;;;375.57;146.57;;;;;;;;;;5033621;28;20210;-60
2024/01/25 03:51:16;;;;;;;392.83;153.47;;;;;;;;;;5041929;28;20598;-59
2024/01/25 03:53:42;;;;;;;398.63;154.67;;;;;;;;;;5040260;28;20211;-60
2024/01/25 03:56:13;;;;;;;458.07;176.07;;;;;;;;;;5035124;28;20231;-59
2024/01/25 03:58:38;;;;;;;410.10;159.13;;;;;;;;;;5038951;28;20167;-60
2024/01/25 04:01:05;;;;;;;411.77;158.10;;;;;;;;;;5036403;28;20213;-61
2024/01/25 04:03:31;;;;;;;390.27;155.23;;;;;;;;;;5035389;28;20370;-60
2024/01/25 04:05:57;;;;;;;417.13;164.33;;;;;;;;;;5039705;28;20738;-60
2024/01/25 04:08:23;;;;;;;449.53;177.33;;;;;;;;;;5030936;28;20299;-59
2024/01/25 04:10:49;;;;;;;400.87;159.27;;;;;;;;;;5036621;28;20179;-60
2024/01/25 04:13:15;;;;;;;417.97;159.40;;;;;;;;;;5032485;28;20261;-60
2024/01/25 04:15:41;;;;;;;369.90;145.70;;;;;;;;;;5038037;28;20220;-60
2024/01/25 04:18:07;;;;;;;405.47;158.57;;;;;;;;;;5035824;28;20592;-58
2024/01/25 04:20:34;;;;;;;373.83;147.53;;;;;;;;;;5036886;28;20698;-58
2024/01/25 04:23:00;;;;;;;387.33;155.13;;;;;;;;;;5035452;28;20180;-61
2024/01/25 04:30:03;;;;;;;500.57;196.43;;;;;;;;;;5065559;27;21192;-59
2024/01/25 04:32:29;;;;;;;446.13;180.37;;;;;;;;;;4989283;28;20312;-60
2024/01/25 04:34:55;;;;;;;409.90;162.73;;;;;;;;;;4973175;28;20676;-59
2024/01/25 04:37:21;;;;;;;408.80;168.60;;;;;;;;;;4973664;28;20228;-58
2024/01/25 04:39:47;;;;;;;368.57;142.73;;;;;;;;;;4973724;28;20232;-60
2024/01/25 04:42:13;;;;;;;385.87;154.43;;;;;;;;;;4971820;28;20359;-57
2024/01/25 04:44:39;;;;;;;394.60;157.93;;;;;;;;;;4972027;28;20574;-57
2024/01/25 04:47:05;;;;;;;386.20;156.00;;;;;;;;;;4974762;28;20348;-57
2024/01/25 04:49:31;;;;;;;413.37;163.93;;;;;;;;;;4973875;28;20178;-57
2024/01/25 04:51:57;;;;;;;405.47;159.07;;;;;;;;;;4981247;28;20216;-56
2024/01/25 04:54:23;;;;;;;407.53;160.13;;;;;;;;;;4985462;28;20236;-57
2024/01/25 04:56:49;;;;;;;460.40;182.20;;;;;;;;;;4993634;28;20211;-56
2024/01/25 04:59:15;;;;;;;393.43;156.90;;;;;;;;;;4988014;28;20680;-57
2024/01/25 05:01:41;;;;;;;359.37;142.27;;;;;;;;;;4991941;28;20705;-57
2024/01/25 05:04:07;;;;;;;360.87;142.80;;;;;;;;;;4976108;28;20435;-57
2024/01/25 05:06:33;;;;;;;448.70;181.90;;;;;;;;;;4969443;28;20213;-58
2024/01/25 05:08:59;;;;;;;370.53;145.53;;;;;;;;;;4972269;28;20456;-59
2024/01/25 05:11:25;;;;;;;445.40;178.77;;;;;;;;;;4978854;28;20224;-58
2024/01/25 05:13:51;;;;;;;394.13;154.77;;;;;;;;;;4991838;28;20216;-58
2024/01/25 05:16:17;;;;;;;414.97;165.90;;;;;;;;;;4987493;28;20225;-58
2024/01/25 05:18:43;;;;;;;370.03;150.53;;;;;;;;;;4980638;28;20221;-58
2024/01/25 05:21:09;;;;;;;391.57;150.70;;;;;;;;;;4983761;28;20217;-58
2024/01/25 05:23:35;;;;;;;405.50;161.70;;;;;;;;;;4985603;28;20606;-59
2024/01/25 05:26:02;;;;;;;438.10;177.43;;;;;;;;;;4973484;28;20216;-59
2024/01/25 05:28:28;;;;;;;428.17;171.00;;;;;;;;;;4990018;28;20283;-59
2024/01/25 05:30:54;;;;;;;394.43;155.53;;;;;;;;;;4979651;28;20233;-59
2024/01/25 05:33:20;;;;;;;395.93;157.07;;;;;;;;;;4975698;28;20267;-59
2024/01/25 05:35:45;;;;;;;448.03;178.20;;;;;;;;;;4974655;28;20633;-59
2024/01/25 05:38:11;;;;;;;355.73;143.33;;;;;;;;;;4992531;28;20296;-59
2024/01/25 05:40:37;;;;;;;406.53;161.90;;;;;;;;;;4959765;28;20185;-59
2024/01/25 05:43:04;;;;;;;388.20;155.70;;;;;;;;;;4973579;28;20872;-59
2024/01/25 05:45:30;;;;;;;434.20;168.13;;;;;;;;;;4971224;28;20414;-59
2024/01/25 05:47:56;;;;;;;462.47;181.70;;;;;;;;;;4979633;28;20255;-59
2024/01/25 05:50:22;;;;;;;439.37;171.90;;;;;;;;;;4976209;28;20221;-59
2024/01/25 05:52:48;;;;;;;407.83;163.33;;;;;;;;;;4958848;28;20585;-59
2024/01/25 05:55:14;;;;;;;398.93;158.93;;;;;;;;;;4960738;28;20843;-59
2024/01/25 05:57:40;;;;;;;421.27;174.37;;;;;;;;;;4971505;28;20225;-59
2024/01/25 06:00:07;;;;;;;428.53;167.70;;;;;;;;;;4982088;28;20747;-59
2024/01/25 06:02:33;;;;;;;445.40;173.73;;;;;;;;;;4972261;28;20266;-59
2024/01/25 06:04:59;;;;;;;538.10;220.73;;;;;;;;;;4944903;28;20206;-59
2024/01/25 06:07:26;;;;;;;402.97;161.93;;;;;;;;;;4973587;28;20573;-59
2024/01/25 06:09:52;;;;;;;439.40;176.03;;;;;;;;;;4974253;28;20208;-58
2024/01/25 06:12:18;;;;;;;401.80;156.50;;;;;;;;;;4975858;28;20677;-60
2024/01/25 06:14:43;;;;;;;444.90;173.17;;;;;;;;;;4974323;28;20225;-59
2024/01/25 06:17:09;;;;;;;418.30;161.53;;;;;;;;;;4978220;28;20201;-59
2024/01/25 06:19:36;;;;;;;391.77;154.90;;;;;;;;;;4974344;28;20256;-60
2024/01/25 06:22:02;;;;;;;431.30;165.23;;;;;;;;;;4978596;28;20244;-59
2024/01/25 06:24:28;;;;;;;473.53;186.03;;;;;;;;;;4961360;28;20218;-60
2024/01/25 06:26:55;;;;;;;409.17;155.17;;;;;;;;;;4965265;28;20585;-60
2024/01/25 06:29:21;;;;;;;448.40;168.77;;;;;;;;;;4969294;28;20240;-59
2024/01/25 06:31:48;;;;;;;442.13;172.10;;;;;;;;;;4974494;28;20815;-60
2024/01/25 06:34:14;;;;;;;418.00;164.97;;;;;;;;;;4980339;28;20220;-59
2024/01/25 06:36:40;;;;;;;400.27;161.00;;;;;;;;;;4989578;28;20236;-60
2024/01/25 06:39:06;;;;;;;416.37;166.33;;;;;;;;;;4966180;28;20253;-60
2024/01/25 06:41:33;;;;;;;414.47;160.20;;;;;;;;;;4968192;28;20328;-59
2024/01/25 06:43:59;;;;;;;456.30;175.10;;;;;;;;;;4959638;28;20193;-59
2024/01/25 06:46:26;;;;;;;439.40;169.77;;;;;;;;;;4966366;28;20592;-59
2024/01/25 06:48:52;;;;;;;599.10;237.83;;;;;;;;;;4942624;28;20261;-59
2024/01/25 06:51:19;;;;;;;416.60;157.43;;;;;;;;;;4966460;28;20217;-60
2024/01/25 06:53:45;;;;;;;448.83;175.53;;;8.30;1.00;;;;;;4970373;28;20205;-59
2024/01/25 06:56:11;;;;;;;432.63;161.60;;;;;;;;;;4955564;28;20218;-59
2024/01/25 06:58:37;;;;;;;433.80;166.20;;;;;;;;;;4968811;28;20231;-60
2024/01/25 07:01:07;;;;;;;418.43;162.70;;;;;;;;;;4958868;28;20242;-60
2024/01/25 07:03:33;;;;;;;386.07;150.73;;;;;;;;;;4978856;28;20714;-60
2024/01/25 07:05:59;;;;;;;417.87;162.70;;;;;;;;;;4967766;28;20756;-60
2024/01/25 07:08:28;;;;;;;395.57;153.47;;;;;;;;;;4964366;28;20583;-59
2024/01/25 07:10:55;;;;;;;416.10;154.83;;;;;;;;;;4985528;28;20325;-61
2024/01/25 07:13:21;;;;;;;429.53;157.93;;;;;;;;;;4962213;28;20305;-62
2024/01/25 07:15:48;;;;;;;534.37;188.80;;;;;;;;;;4974071;28;20221;-61
2024/01/25 07:18:14;;;;;;;397.97;148.57;;;;;;;;;;4970075;28;20237;-61
2024/01/25 07:20:40;;;;;;;459.27;170.20;;;;;;;;;;4971348;28;20248;-62
2024/01/25 07:23:06;;;;;;;570.07;202.47;;;;;;;;;;4969497;28;20213;-62
2024/01/25 07:25:32;;;;;;;415.03;156.50;;;;;;;;;;4947752;28;20957;-61
2024/01/25 07:27:58;;;;;;;424.10;162.73;;;;;;;;;;4965477;28;20217;-61
2024/01/25 07:30:24;;;;;;;392.70;151.20;;;;;;;;;;4981692;28;20453;-62
2024/01/25 07:32:50;;;;;;;441.20;169.53;;;;;;;;;;4983689;28;20209;-60
2024/01/25 07:35:16;;;;;;;439.63;171.47;;;;;;;;;;4977103;28;22153;-59
2024/01/25 07:37:42;;;;;;;458.47;182.53;;;;;;;;;;4957769;28;20276;-61
2024/01/25 07:40:09;;;;;;;493.50;196.73;;;;;;;;;;4970434;28;20661;-61
2024/01/25 07:42:35;;;;;;;417.40;159.70;;;;;;;;;;4968542;28;20218;-61
2024/01/25 07:45:01;;;;;;;426.40;160.43;;;;;;;;;;4962160;28;20598;-61
2024/01/25 07:47:27;;;;;;;405.77;155.70;;;;;;;;;;4947511;28;20275;-61
2024/01/25 07:49:52;;;;;;;459.33;171.87;;;;;;;;;;4961939;28;20199;-61
2024/01/25 07:52:18;;;;;;;392.53;154.23;;;;;;;;;;4974804;28;20214;-62
2024/01/25 07:54:44;;;;;;;433.83;169.20;;;;;;;;;;4977587;28;20220;-61
2024/01/25 07:57:10;;;;;;;497.07;194.03;;;;;;;;;;4952257;28;20222;-61
2024/01/25 07:59:37;;;;;;;397.87;155.83;;;;;;;;;;4959287;28;20225;-61
2024/01/25 08:02:03;;;;;;;371.67;144.83;;;;;;;;;;4963271;28;20193;-61
2024/01/25 08:04:29;;;;;;;485.50;190.23;;;;;;;;;;4976021;28;20536;-61
2024/01/25 08:06:55;;;;;;;445.50;168.87;;;;;;;;;;4971646;28;20217;-61
2024/01/25 08:09:22;;;;;;;410.27;163.53;;;;;;;;;;4963607;28;20587;-61
2024/01/25 08:11:48;;;;;;;445.83;172.80;;;;;;;;;;4965395;28;20216;-61
2024/01/25 08:14:14;;;;;;;446.53;171.17;;;;;;;;;;4983121;28;20199;-62
2024/01/25 08:16:40;;;;;;;423.80;163.40;;;;;;;;;;4977420;28;20214;-61
2024/01/25 08:19:06;;;;;;;438.17;171.27;;;;;;;;;;4976482;28;20222;-61
2024/01/25 08:21:32;;;;;;;441.30;170.20;;;;;;;;;;4975442;28;20321;-61
2024/01/25 08:23:59;;;;;;;413.63;158.93;;;;;;;;;;4955572;28;20308;-61
2024/01/25 08:26:25;;;;;;;410.27;157.10;;;;;;;;;;4966427;28;20734;-61
2024/01/25 08:28:51;;;;;;;452.30;171.23;;;;;;;;;;4960588;28;20288;-61
2024/01/25 08:31:17;;;;;;;407.43;156.97;;;;;;;;;;4976845;28;20297;-61
2024/01/25 08:33:47;;;;;;;441.97;168.80;;;;;;;;;;4962766;28;20221;-63
2024/01/25 08:36:13;;;;;;;379.37;148.23;;;;;;;;;;4967644;28;20284;-63
2024/01/25 08:38:39;;;;;;;409.27;157.57;;;;;;;;;;4960275;28;20222;-62
2024/01/25 08:41:05;;;;;;;400.50;154.50;;;;;;;;;;4966747;28;20272;-62
2024/01/25 08:43:30;;;;;;;456.27;177.57;;;;;;;;;;4950855;28;20821;-62
2024/01/25 08:45:56;;;;;;;433.10;167.03;;;;;;;;;;4979089;28;20236;-62
2024/01/25 08:48:22;;;;;;;430.27;164.00;;;;;;;;;;4968914;28;20219;-62
2024/01/25 08:50:53;;;;;;;442.43;170.47;;;;;;;;;;4967846;28;20259;-62
2024/01/25 08:53:19;;;;;;;427.80;163.77;;;;;;;;;;4983530;28;20268;-63
2024/01/25 08:55:44;;;;;;;427.60;166.30;;;;;;;;;;4964668;28;20253;-63
2024/01/25 08:58:10;;;;;;;424.50;163.57;;;;;;;;;;4972737;28;20477;-62
2024/01/25 09:00:36;;;;;;;416.67;158.47;;;;;;;;;;4965230;28;20649;-61
2024/01/25 09:03:02;;;;;;;478.33;183.77;;;;;;;;;;4962325;28;20220;-62
2024/01/25 09:05:28;;;;;;;425.67;164.53;;;;;;;;;;4960364;28;20752;-61
2024/01/25 09:07:54;;;;;;;446.83;175.50;;;;;;;;;;4966413;28;20197;-62
2024/01/25 09:10:20;;;;;;;413.00;157.10;;;;;;;;;;4954928;28;20210;-62
2024/01/25 09:12:46;;;;;;;431.83;169.70;;;;;;;;;;4962369;28;20704;-62
2024/01/25 09:15:13;;;;;;;407.17;157.23;;;;;;;;;;4954344;28;20223;-61
2024/01/25 09:17:39;;;;;;;524.13;209.40;;;;;;;;;;4951745;28;20550;-61
2024/01/25 09:20:06;;;;;;;436.47;165.23;;;;;;;;;;4954176;28;20318;-61
2024/01/25 09:22:32;;;;;;;470.90;185.10;;;;;;;;;;4953899;28;20241;-61
2024/01/25 09:24:58;;;;;;;483.87;187.70;;;;;;;;;;4973078;28;20217;-61
2024/01/25 09:27:24;;;;;;;462.63;174.30;;;;;;;;;;4977068;28;20612;-61
2024/01/25 09:29:50;;;;;;;512.07;202.37;;;;;;;;;;4978394;28;20782;-62
2024/01/25 09:32:15;;;;;;;435.63;166.97;;;;;;;;;;4972332;28;21631;-62
2024/01/25 09:34:41;;;;;;;387.50;148.10;;;;;;;;;;4962543;28;20313;-62
2024/01/25 09:37:07;;;;;;;436.07;167.50;;;;;;;;;;4954379;28;20361;-62
2024/01/25 09:39:35;;;;;;;412.53;158.43;;;;;;;;;;4966494;28;20316;-61
2024/01/25 09:42:01;;;;;;;410.40;161.93;;;;;;;;;;4976003;28;20213;-60
2024/01/25 09:44:27;;;;;;;451.63;179.70;;;;;;;;;;4966063;28;20633;-59
2024/01/25 09:46:53;;;;;;;463.67;184.00;;;;;;;;;;4953648;28;20206;-58
2024/01/25 09:49:19;;;;;;;450.37;174.30;;;;;;;;;;4954291;28;20581;-59
2024/01/25 09:51:45;;;;;;;397.47;157.20;;;8.40;99.90;;;;;;4963138;28;20214;-59
2024/01/25 09:54:11;;;;;;;430.33;168.93;;;;;;;;;;4954811;28;20260;-60
2024/01/25 09:56:37;;;;;;;406.37;159.23;;;;;;;;;;4968721;28;20588;-60
2024/01/25 09:59:04;;;;;;;437.60;172.47;;;;;;;;;;4980913;28;20681;-59
2024/01/25 10:01:30;;;;;;;421.10;164.37;;;;;;;;;;4949563;28;20194;-59
2024/01/25 10:03:56;;;;;;;477.83;189.73;;;;;;;;;;4972559;28;20225;-59
2024/01/25 10:06:22;;;;;;;396.43;158.40;;;8.40;1.00;;;;;;4974939;28;20217;-59
2024/01/25 10:08:48;;;;;;;462.37;182.70;;;;;;;;;;4967065;28;20214;-59
2024/01/25 10:11:14;;;;;;;418.07;163.93;;;8.40;99.90;;;;;;4955503;28;20197;-60
2024/01/25 10:13:50;;;;;;;489.67;198.10;;;8.40;1.00;;;;;;4971971;28;21600;-60
2024/01/25 10:16:19;;;;;;;505.60;199.33;;;8.30;99.90;;;;;;4971169;28;20590;-60
2024/01/25 10:18:48;;;;;;;428.47;165.20;;;8.40;99.90;;;;;;4976722;28;20221;-59
2024/01/25 10:21:15;;;;;;;432.60;170.83;;;8.30;99.90;;;;;;4974197;28;20565;-60
2024/01/25 10:23:41;;;;;;;442.50;174.00;;;;;;;;;;4971139;28;20209;-60
2024/01/25 10:26:10;;;;;;;463.03;176.37;;;;;;;;;;4968317;28;20367;-59
2024/01/25 10:28:36;;;;;;;466.43;186.80;;;;;;;;;;4949196;28;20292;-60
2024/01/25 10:31:04;;;;;;;459.33;175.93;;;8.60;1.00;;;;;;4972569;28;20209;-60
2024/01/25 10:33:30;;;;;;;452.50;177.80;;;;;;;;;;4973457;28;20266;-59
2024/01/25 10:36:01;;;;;;;424.47;163.20;;;;;;;;;;4977790;28;20217;-59
2024/01/25 10:38:29;;;;;;;427.73;167.00;;;;;;;;;;4971417;28;20447;-60
2024/01/25 10:40:55;;;;;;;448.10;172.47;;;;;;;;;;4952223;28;20588;-58
2024/01/25 10:43:21;;;;;;;409.97;159.17;;;;;;;;;;4992846;23;20229;-69
2024/01/25 10:45:47;;;;;;;452.37;180.00;;;;;;;;;;4980858;28;20217;-70
2024/01/25 10:48:13;;;;;;;425.00;168.63;;;;;;;;;;4986285;28;20236;-69
2024/01/25 10:50:39;;;;;;;434.93;173.77;;;;;;;;;;4990794;28;20575;-70
2024/01/25 10:53:07;;;;;;;643.13;287.33;;;8.30;99.90;;;;;;4966251;28;20205;-70
2024/01/25 10:55:32;;;;;;;405.13;161.73;;;;;;;;;;4975241;28;20194;-69
2024/01/25 10:57:58;;;;;;;399.83;161.37;;;;;;;;;;4973342;28;20565;-69
2024/01/25 11:00:24;;;;;;;419.97;166.67;;;;;;;;;;4975765;28;20225;-69
2024/01/25 11:02:51;;;;;;;414.37;160.37;;;;;;;;;;4978471;28;20488;-69
2024/01/25 11:05:18;;;;;;;420.40;161.07;;;8.40;99.90;;;;;;4980428;28;20190;-70
2024/01/25 11:07:48;;;;;;;458.17;186.30;;;8.60;99.90;;;;;;4995613;28;20185;-70
2024/01/25 11:10:16;;;;;;;473.20;186.53;;;8.60;99.90;;;;;;4993342;28;20286;-69
2024/01/25 11:12:51;;;;;;;457.03;185.37;;;8.60;99.90;;;;;;4974074;28;20276;-68
2024/01/25 11:15:24;;;;;;;500.60;208.63;;;;;;;;;;4980401;28;20647;-75
2024/01/25 11:17:54;;;;;;;431.17;175.47;;;8.60;97.80;;;;;;4996856;28;20217;-74
2024/01/25 11:20:24;;;;;;;444.07;177.07;;;8.60;23.50;;;;;;4984878;28;20185;-74
2024/01/25 11:22:56;;;;;;;505.43;202.07;;;;;;;;;;4961926;28;20659;-71
2024/01/25 11:25:21;;;;;;;400.03;154.43;;;;;;;;;;4971356;28;20820;-72
2024/01/25 11:27:50;;;;;;;438.60;181.23;;;;;;;;;;4972113;28;20277;-71
2024/01/25 11:30:19;;;;;;;434.50;178.50;;;8.60;99.90;;;;;;4970197;28;20217;-73
2024/01/25 11:32:46;;;;;;;434.77;170.50;;;;;;;;;;4982862;28;20568;-73
2024/01/25 11:35:16;;;;;;;452.00;185.23;;;;;;;;;;4995672;28;20271;-72
2024/01/25 11:37:42;;;;;;;494.53;210.13;;;;;;;;;;4987885;28;20190;-74
2024/01/25 11:40:08;;;;;;;516.47;211.67;;;;;;;;;;4992478;28;20227;-77
2024/01/25 11:42:34;;;;;;;411.10;162.90;;;;;;;;;;4977822;28;20715;-71
2024/01/25 11:45:00;;;;;;;483.40;203.10;;;;;;;;;;4979691;28;20266;-75
2024/01/25 11:47:26;;;;;;;445.83;180.97;;;;;;;;;;4991449;28;20221;-74
2024/01/25 11:49:52;;;;;;;419.87;166.10;;;;;;;;;;4995999;28;20189;-71
2024/01/25 11:52:17;;;;;;;471.67;195.70;;;;;;;;;;4994920;28;20211;-74
2024/01/25 11:54:43;;;;;;;483.33;197.83;;;;;;;;;;4984024;28;20209;-73
2024/01/25 11:57:09;;;;;;;444.03;178.97;;;;;;;;;;4993804;28;20208;-72
2024/01/25 11:59:36;;;;;;;395.63;155.70;;;;;;;;;;4992717;28;20603;-73
2024/01/25 12:02:02;;;;;;;468.00;188.87;;;;;;;;;;4988650;28;22185;-70
2024/01/25 12:04:28;;;;;;;417.03;167.90;;;;;;;;;;4991479;28;20200;-73
2024/01/25 12:06:54;;;;;;;432.43;172.77;;;;;;;;;;4991140;28;20363;-73
2024/01/25 12:09:20;;;;;;;454.90;186.30;;;;;;;;;;4995045;28;20216;-74
2024/01/25 12:11:49;;;;;;;393.73;154.53;;;;;;;;;;4989675;28;20269;-74
2024/01/25 12:14:17;;;;;;;451.20;179.50;;;;;;;;;;4976599;28;20205;-73
2024/01/25 12:16:43;;;;;;;431.53;166.10;;;;;;;;;;4977055;28;20181;-74
2024/01/25 12:19:09;;;;;;;460.17;184.03;;;;;;;;;;4975461;28;20228;-72
2024/01/25 12:21:36;;;;;;;411.73;157.97;;;;;;;;;;4979733;28;20237;-74
2024/01/25 12:24:02;;;;;;;405.57;162.47;;;;;;;;;;4969381;28;20269;-74
2024/01/25 12:26:28;;;;;;;431.43;178.30;;;;;;;;;;4972269;28;20276;-73
2024/01/25 12:28:54;;;;;;;418.43;167.30;;;;;;;;;;4975967;28;20991;-74
2024/01/25 12:31:20;;;;;;;420.07;168.13;;;;;;;;;;4972729;28;20708;-74
2024/01/25 12:33:46;;;;;;;412.97;160.73;;;;;;;;;;4992423;28;20299;-72
2024/01/25 12:36:12;;;;;;;472.07;194.60;;;;;;;;;;4990234;28;20227;-73
2024/01/25 12:38:39;;;;;;;419.50;168.87;;;;;;;;;;4992937;28;20666;-73
2024/01/25 12:41:05;;;;;;;370.87;149.33;;;;;;;;;;4999056;28;20247;-72
2024/01/25 12:43:30;;;;;;;394.20;152.27;;;;;;;;;;4995362;28;20238;-73
2024/01/25 12:45:57;;;;;;;441.77;174.20;;;;;;;;;;4993073;28;20603;-72
2024/01/25 12:48:22;;;;;;;433.63;172.87;;;;;;;;;;4995758;28;20738;-72
2024/01/25 12:50:48;;;;;;;429.13;170.40;;;;;;;;;;4995574;28;20232;-73
2024/01/25 12:53:14;;;;;;;424.57;172.83;;;;;;;;;;5000316;28;20209;-72
2024/01/25 12:55:40;;;;;;;417.20;169.33;;;;;;;;;;4998980;28;20227;-71
2024/01/25 12:58:06;;;;;;;463.23;192.80;;;;;;;;;;4999110;28;20220;-72
2024/01/25 13:00:33;;;;;;;454.23;177.73;;;;;;;;;;4995245;28;20324;-71
2024/01/25 13:03:01;;;;;;;453.60;181.00;;;;;;;;;;4993317;28;20227;-73
2024/01/25 13:05:27;;;;;;;442.90;177.87;;;;;;;;;;4994287;28;20266;-73
2024/01/25 13:07:53;;;;;;;386.60;155.40;;;;;;;;;;4997122;28;20636;-72
2024/01/25 13:10:19;;;;;;;528.90;221.73;;;;;;;;;;4993438;28;20208;-73
2024/01/25 13:12:45;;;;;;;459.60;186.07;;;;;;;;;;4998659;28;20224;-73
2024/01/25 13:15:11;;;;;;;474.70;197.30;;;;;;;;;;4986896;28;20248;-73
2024/01/25 13:17:37;;;;;;;442.27;187.10;;;;;;;;;;4992642;28;20228;-72
2024/01/25 13:20:06;;;;;;;411.17;166.57;;;;;;;;;;4978617;28;20244;-72
2024/01/25 13:22:33;;;;;;;492.57;204.70;;;;;;;;;;4996101;28;20559;-72
2024/01/25 13:24:59;;;;;;;503.93;214.20;;;;;;;;;;4994198;28;20256;-72
2024/01/25 13:27:25;;;;;;;465.97;193.07;;;;;;;;;;4994145;28;20239;-72
2024/01/25 13:29:50;;;;;;;426.03;175.13;;;;;;;;;;4987849;28;20866;-72
2024/01/25 13:32:16;;;;;;;412.17;167.27;;;;;;;;;;4975308;28;20823;-71
2024/01/25 13:34:42;;;;;;;468.77;200.37;;;;;;;;;;4980649;28;20181;-72
2024/01/25 13:37:08;;;;;;;418.30;170.50;;;;;;;;;;4974636;28;20295;-72
2024/01/25 13:39:34;;;;;;;464.03;192.33;;;;;;;;;;4974920;28;20230;-72
2024/01/25 13:42:00;;;;;;;402.20;166.77;;;;;;;;;;4981569;28;20228;-73
2024/01/25 13:44:26;;;;;;;489.87;202.87;;;;;;;;;;4965815;28;20248;-73
2024/01/25 13:46:52;;;;;;;458.93;190.17;;;;;;;;;;4972945;28;20259;-72